Time;durP1;ratioP1;P1;durP2;ratioP2;P2;SDS_P1;SDS_P2;PMS_P1;PMS_P2;Temp;Humidity;BMP_temperature;BMP_pressure;BME280_temperature;BME280_humidity;BME280_pressure;Samples;Min_cycle;Max_cycle;Signal;HPM_P1;HPM_P2
2021/08/29 00:01:17;;;;;;;0.80;0.80;;;15.00;99.90;;;;;;5072282;28;20647;-44
2021/08/29 00:03:43;;;;;;;1.58;1.17;;;15.00;99.90;;;;;;5072308;28;20025;-43
2021/08/29 00:06:08;;;;;;;1.08;1.00;;;15.00;99.90;;;;;;5072000;28;20040;-44
2021/08/29 00:08:34;;;;;;;1.00;0.90;;;15.00;99.90;;;;;;5071490;28;20025;-43
2021/08/29 00:10:59;;;;;;;1.55;1.08;;;15.00;99.90;;;;;;5072196;28;20478;-43
2021/08/29 00:13:26;;;;;;;1.20;1.10;;;15.00;99.90;;;;;;5072131;28;20043;-45
2021/08/29 00:15:51;;;;;;;2.53;1.15;;;14.90;99.90;;;;;;5070772;28;20021;-45
2021/08/29 00:18:17;;;;;;;1.20;1.10;;;14.90;99.90;;;;;;5071419;28;20150;-43
2021/08/29 00:20:44;;;;;;;2.10;1.33;;;15.00;99.90;;;;;;5071966;28;20098;-43
2021/08/29 00:23:10;;;;;;;2.25;1.33;;;14.90;99.90;;;;;;5059176;28;20016;-43
2021/08/29 00:25:35;;;;;;;0.95;0.95;;;14.90;99.90;;;;;;5063289;28;20391;-44
2021/08/29 00:28:01;;;;;;;2.17;1.23;;;14.90;99.90;;;;;;5071212;28;20031;-43
2021/08/29 00:30:27;;;;;;;4.28;2.05;;;14.90;99.90;;;;;;5071553;28;20381;-44
2021/08/29 00:32:52;;;;;;;2.28;1.67;;;14.90;99.90;;;;;;5071558;28;20020;-44
2021/08/29 00:35:18;;;;;;;2.42;2.17;;;14.90;99.90;;;;;;5071652;28;20025;-44
2021/08/29 00:37:43;;;;;;;3.25;2.20;;;14.90;99.90;;;;;;5070755;28;20048;-45
2021/08/29 00:40:09;;;;;;;3.45;2.00;;;14.90;99.90;;;;;;5071501;28;20025;-43
2021/08/29 00:42:35;;;;;;;3.03;2.25;;;14.90;99.90;;;;;;5071293;28;20378;-43
2021/08/29 00:45:00;;;;;;;2.78;2.47;;;14.90;99.90;;;;;;5068070;28;20029;-46
2021/08/29 00:47:26;;;;;;;3.53;2.42;;;14.90;99.90;;;;;;5062420;28;20024;-43
2021/08/29 00:49:51;;;;;;;3.47;2.33;;;14.80;99.90;;;;;;5071223;28;20025;-44
2021/08/29 00:52:17;;;;;;;4.00;2.53;;;14.80;99.90;;;;;;5069849;28;20074;-44
2021/08/29 00:54:42;;;;;;;3.22;2.53;;;14.80;99.90;;;;;;5071050;28;20040;-43
2021/08/29 00:57:09;;;;;;;3.35;2.33;;;14.80;99.90;;;;;;5070653;28;20043;-44
2021/08/29 00:59:42;;;;;;;4.03;3.10;;;14.80;99.90;;;;;;5071261;28;20023;-44
2021/08/29 01:02:13;;;;;;;3.10;2.67;;;14.80;99.90;;;;;;5070914;28;20020;-44
2021/08/29 01:05:04;;;;;;;2.75;2.38;;;14.80;99.90;;;;;;5071150;28;20131;-44
2021/08/29 01:07:49;;;;;;;4.25;2.90;;;14.90;99.90;;;;;;5070490;28;20062;-44
2021/08/29 01:10:25;;;;;;;3.40;3.10;;;14.90;99.90;;;;;;5070873;28;20036;-45
2021/08/29 01:12:51;;;;;;;3.15;2.85;;;14.80;99.90;;;;;;5070834;28;20036;-43
2021/08/29 01:15:23;;;;;;;4.68;2.90;;;14.80;99.90;;;;;;5068626;28;20024;-43
2021/08/29 01:17:49;;;;;;;5.65;3.30;;;14.80;99.90;;;;;;5061763;28;20012;-43
2021/08/29 01:20:50;;;;;;;3.88;3.10;;;14.80;99.90;;;;;;5070536;28;20362;-43
2021/08/29 01:23:18;;;;;;;3.80;3.25;;;14.80;99.90;;;;;;5070598;28;20020;-43
2021/08/29 01:25:48;;;;;;;6.10;3.47;;;14.80;99.90;;;;;;5070466;28;20115;-45
2021/08/29 01:28:16;;;;;;;3.75;3.08;;;14.80;99.90;;;;;;5068582;28;20025;-44
2021/08/29 01:30:43;;;;;;;4.75;3.65;;;14.80;99.90;;;;;;5068870;28;20028;-45
2021/08/29 01:33:09;;;;;;;5.90;4.05;;;14.70;99.90;;;;;;5070504;28;20420;-45
2021/08/29 01:35:37;;;;;;;4.70;3.60;;;14.80;99.90;;;;;;5070507;28;20111;-44
2021/08/29 01:38:05;;;;;;;3.60;3.13;;;14.70;99.90;;;;;;5069924;28;20020;-43
2021/08/29 01:40:31;;;;;;;6.40;4.03;;;14.70;99.90;;;;;;5070452;28;20116;-42
2021/08/29 01:42:59;;;;;;;6.60;4.25;;;14.80;99.90;;;;;;5070141;28;20021;-43
2021/08/29 01:45:24;;;;;;;4.88;3.67;;;14.70;99.90;;;;;;5066369;28;20470;-43
2021/08/29 01:47:57;;;;;;;7.47;3.67;;;14.80;99.90;;;;;;5061217;28;20031;-44
2021/08/29 01:50:23;;;;;;;7.55;4.00;;;14.70;99.90;;;;;;5070225;28;20032;-43
2021/08/29 01:52:49;;;;;;;5.78;5.00;;;14.70;99.90;;;;;;5068923;28;20093;-44
2021/08/29 01:55:15;;;;;;;4.30;3.90;;;14.70;99.90;;;;;;5069879;28;20623;-44
2021/08/29 01:57:40;;;;;;;5.32;4.40;;;14.70;99.90;;;;;;5069203;28;20343;-44
2021/08/29 02:00:07;;;;;;;5.47;4.43;;;14.70;99.90;;;;;;5069195;28;20035;-43
2021/08/29 02:02:33;;;;;;;7.40;3.90;;;14.70;99.90;;;;;;5070150;28;20031;-44
2021/08/29 02:04:58;;;;;;;4.20;3.80;;;14.70;99.90;;;;;;5070360;28;20028;-43
2021/08/29 02:07:37;;;;;;;6.13;4.40;;;14.70;99.90;;;;;;5068358;28;20033;-43
2021/08/29 02:10:06;;;;;;;6.55;4.35;;;14.70;99.90;;;;;;5070050;28;20100;-44
2021/08/29 02:12:37;;;;;;;4.97;4.10;;;14.70;99.90;;;;;;5069855;28;20569;-43
2021/08/29 02:15:08;;;;;;;5.15;4.50;;;14.70;99.90;;;;;;5067347;28;20037;-46
2021/08/29 02:17:35;;;;;;;5.95;4.45;;;14.70;99.90;;;;;;5060860;28;20025;-46
2021/08/29 02:20:06;;;;;;;5.65;5.05;;;14.70;99.90;;;;;;5069975;28;20013;-46
2021/08/29 02:22:33;;;;;;;5.22;4.30;;;14.70;99.90;;;;;;5069821;28;20074;-47
2021/08/29 02:25:01;;;;;;;5.35;4.05;;;14.70;99.90;;;;;;5069802;28;20067;-45
2021/08/29 02:27:27;;;;;;;6.78;4.70;;;14.70;99.90;;;;;;5069194;28;20025;-43
2021/08/29 02:29:53;;;;;;;5.32;4.45;;;14.70;99.90;;;;;;5069848;28;20078;-44
2021/08/29 02:32:18;;;;;;;5.13;4.57;;;14.70;99.90;;;;;;5069469;28;20028;-43
2021/08/29 02:34:44;;;;;;;4.03;3.63;;;14.70;99.90;;;;;;5069502;28;20460;-44
2021/08/29 02:37:11;;;;;;;6.13;4.45;;;14.70;99.90;;;;;;5069101;28;20020;-46
2021/08/29 02:39:38;;;;;;;8.07;4.70;;;14.70;99.90;;;;;;5069842;28;20626;-44
2021/08/29 02:42:05;;;;;;;4.55;4.13;;;14.60;99.90;;;;;;5069696;28;20027;-44
2021/08/29 02:44:32;;;;;;;9.57;4.90;;;14.70;99.90;;;;;;5069541;28;20631;-43
2021/08/29 02:46:58;;;;;;;4.63;4.10;;;14.70;99.90;;;;;;5057530;28;20033;-43
2021/08/29 02:49:24;;;;;;;6.97;3.40;;;14.70;99.90;;;;;;5069560;28;20021;-45
2021/08/29 02:51:51;;;;;;;4.57;3.67;;;14.70;99.90;;;;;;5069432;28;20051;-43
2021/08/29 02:54:19;;;;;;;5.97;4.47;;;14.60;99.90;;;;;;5069556;28;20033;-43
2021/08/29 02:56:48;;;;;;;6.25;3.90;;;14.60;99.90;;;;;;5068868;28;20020;-43
2021/08/29 02:59:14;;;;;;;6.40;4.80;;;14.60;99.90;;;;;;5069742;28;20498;-46
2021/08/29 03:01:40;;;;;;;4.60;4.07;;;14.60;99.90;;;;;;5068518;28;20217;-45
2021/08/29 03:04:06;;;;;;;5.80;4.32;;;14.60;99.90;;;;;;5068017;28;20436;-43
2021/08/29 03:06:31;;;;;;;5.53;4.70;;;14.60;99.90;;;;;;5067487;28;20060;-44
2021/08/29 03:08:57;;;;;;;5.75;4.72;;;14.60;99.90;;;;;;5067939;28;20529;-44
2021/08/29 03:11:23;;;;;;;6.05;4.95;;;14.60;99.90;;;;;;5067777;28;20028;-43
2021/08/29 03:13:49;;;;;;;7.45;5.35;;;14.60;99.90;;;;;;5070886;28;20028;-44
2021/08/29 03:16:15;;;;;;;6.80;5.05;;;14.50;99.90;;;;;;5065803;28;20047;-43
2021/08/29 03:18:43;;;;;;;7.15;4.78;;;14.50;99.90;;;;;;5067561;28;20029;-44
2021/08/29 03:21:09;;;;;;;5.63;5.03;;;14.50;99.90;;;;;;5071540;28;20013;-43
2021/08/29 03:23:35;;;;;;;6.45;5.05;;;14.60;99.90;;;;;;5071517;28;20036;-44
2021/08/29 03:26:00;;;;;;;7.05;5.28;;;14.60;99.90;;;;;;5071288;28;20375;-43
2021/08/29 03:28:26;;;;;;;6.53;4.63;;;14.60;99.90;;;;;;5071067;28;20107;-44
2021/08/29 03:30:52;;;;;;;5.88;5.03;;;14.60;99.90;;;;;;5071331;28;20111;-43
2021/08/29 03:33:17;;;;;;;7.75;5.53;;;14.50;99.90;;;;;;5071260;28;20032;-44
2021/08/29 03:35:44;;;;;;;5.70;4.70;;;14.60;99.90;;;;;;5071320;28;20027;-45
2021/08/29 03:38:09;;;;;;;6.20;5.20;;;14.60;99.90;;;;;;5070779;28;20112;-44
2021/08/29 03:40:37;;;;;;;8.40;4.72;;;14.60;99.90;;;;;;5071342;28;20100;-45
2021/08/29 03:43:03;;;;;;;9.27;5.10;;;14.50;99.90;;;;;;5069822;28;20020;-44
2021/08/29 03:45:28;;;;;;;6.50;4.28;;;14.50;99.90;;;;;;5058535;28;20026;-45
2021/08/29 03:47:54;;;;;;;5.05;4.28;;;14.50;99.90;;;;;;5053436;28;20033;-44
2021/08/29 03:50:20;;;;;;;5.78;4.50;;;14.50;99.90;;;;;;5042204;28;20546;-46
2021/08/29 03:52:45;;;;;;;5.50;4.30;;;14.50;99.90;;;;;;5040407;28;20030;-43
2021/08/29 03:55:14;;;;;;;5.97;4.57;;;14.50;99.90;;;;;;5040151;28;20099;-44
2021/08/29 03:57:40;;;;;;;6.28;4.55;;;14.50;99.90;;;;;;5039338;28;20021;-47
2021/08/29 04:00:07;;;;;;;4.78;4.28;;;14.40;99.90;;;;;;5038250;28;20029;-44
2021/08/29 04:02:51;;;;;;;6.50;4.68;;;14.40;99.90;;;;;;5028551;28;20682;-44
2021/08/29 04:05:17;;;;;;;5.65;4.60;;;14.40;99.90;;;;;;5039155;28;20029;-44
2021/08/29 04:07:43;;;;;;;8.32;4.97;;;14.50;99.90;;;;;;5038614;28;20033;-44
2021/08/29 04:10:10;;;;;;;6.75;4.53;;;14.50;99.90;;;;;;5040627;28;20454;-44
2021/08/29 04:12:40;;;;;;;4.88;4.32;;;14.50;99.90;;;;;;5040532;28;20029;-45
2021/08/29 04:15:06;;;;;;;5.60;4.70;;;14.50;99.90;;;;;;5038295;28;20072;-45
2021/08/29 04:17:33;;;;;;;5.60;4.68;;;14.50;99.90;;;;;;5043380;28;20302;-45
2021/08/29 04:20:00;;;;;;;6.32;5.63;;;14.50;99.90;;;;;;5042531;28;20022;-44
2021/08/29 04:22:25;;;;;;;5.60;5.03;;;14.40;99.90;;;;;;5039230;28;20021;-44
2021/08/29 04:24:51;;;;;;;6.45;5.10;;;14.50;99.90;;;;;;5040711;28;20517;-44
2021/08/29 04:27:17;;;;;;;6.93;5.25;;;14.50;99.90;;;;;;5040063;28;20029;-45
2021/08/29 04:29:43;;;;;;;6.53;4.85;;;14.50;99.90;;;;;;5038941;28;20387;-45
2021/08/29 04:32:10;;;;;;;6.10;5.50;;;14.50;99.90;;;;;;5037129;28;20036;-46
2021/08/29 04:34:36;;;;;;;7.10;5.20;;;14.50;99.90;;;;;;5033230;28;20091;-47
2021/08/29 04:37:03;;;;;;;7.07;5.47;;;14.50;99.90;;;;;;5030853;28;20169;-45
2021/08/29 04:39:28;;;;;;;5.85;5.03;;;14.50;99.90;;;;;;5033956;28;20107;-45
2021/08/29 04:41:54;;;;;;;6.20;5.18;;;14.40;99.90;;;;;;5046819;28;20266;-45
2021/08/29 04:44:19;;;;;;;7.88;5.80;;;14.40;99.90;;;;;;5042788;28;20115;-45
2021/08/29 04:46:45;;;;;;;6.63;4.95;;;14.50;99.90;;;;;;5038244;28;20099;-43
2021/08/29 04:49:10;;;;;;;8.63;4.72;;;14.40;99.90;;;;;;5036478;28;20208;-44
2021/08/29 04:51:36;;;;;;;6.72;4.75;;;14.50;99.90;;;;;;5034683;28;20029;-44
2021/08/29 04:54:02;;;;;;;13.63;5.78;;;14.40;99.90;;;;;;5034306;28;20026;-44
2021/08/29 04:56:28;;;;;;;5.88;5.25;;;14.50;99.90;;;;;;5033522;28;20009;-44
2021/08/29 04:58:53;;;;;;;5.32;4.82;;;14.50;99.90;;;;;;5038548;28;20029;-44
2021/08/29 05:01:20;;;;;;;7.25;4.72;;;14.40;99.90;;;;;;5039156;28;20390;-43
2021/08/29 05:03:45;;;;;;;5.43;4.57;;;14.50;99.90;;;;;;5038344;28;20463;-44
2021/08/29 05:06:13;;;;;;;7.00;5.03;;;14.50;99.90;;;;;;5036439;28;20025;-43
2021/08/29 05:08:38;;;;;;;6.00;4.40;;;14.50;99.90;;;;;;5038474;28;20170;-44
2021/08/29 05:11:04;;;;;;;7.93;4.90;;;14.50;99.90;;;;;;5041848;28;20111;-44
2021/08/29 05:13:29;;;;;;;5.88;4.45;;;14.50;99.90;;;;;;5043227;28;20044;-44
2021/08/29 05:15:56;;;;;;;6.18;4.95;;;14.50;99.90;;;;;;5042648;28;20034;-44
2021/08/29 05:18:22;;;;;;;5.35;4.70;;;14.50;99.90;;;;;;5046715;28;20430;-45
2021/08/29 05:20:47;;;;;;;7.93;5.30;;;14.50;99.90;;;;;;5046205;28;20024;-44
2021/08/29 05:23:13;;;;;;;5.57;4.32;;;14.60;99.90;;;;;;5045595;28;20029;-44
2021/08/29 05:25:38;;;;;;;8.32;4.82;;;14.50;99.90;;;;;;5062102;28;20032;-45
2021/08/29 05:28:05;;;;;;;10.68;5.13;;;14.60;99.90;;;;;;5046533;28;20036;-44
2021/08/29 05:30:30;;;;;;;6.78;4.95;;;14.50;99.90;;;;;;5036105;28;20029;-44
2021/08/29 05:32:56;;;;;;;5.40;4.25;;;14.50;99.90;;;;;;5030288;28;20044;-44
2021/08/29 05:35:21;;;;;;;7.10;4.85;;;14.60;99.90;;;;;;5048051;28;20117;-44
2021/08/29 05:37:47;;;;;;;6.53;4.88;;;14.50;99.90;;;;;;5039766;28;20024;-43
2021/08/29 05:40:13;;;;;;;4.70;4.00;;;14.60;99.90;;;;;;5040597;28;20027;-44
2021/08/29 05:42:39;;;;;;;8.27;5.50;;;14.60;99.90;;;;;;5042519;28;20017;-44
2021/08/29 05:45:04;;;;;;;5.45;4.32;;;14.60;99.90;;;;;;5036680;28;20509;-44
2021/08/29 05:47:30;;;;;;;4.63;4.22;;;14.60;99.90;;;;;;5041913;28;20037;-44
2021/08/29 05:49:55;;;;;;;4.63;4.00;;;14.70;99.90;;;;;;5066782;28;20048;-43
2021/08/29 05:52:21;;;;;;;6.22;4.13;;;14.70;99.90;;;;;;5052687;28;20025;-44
2021/08/29 05:54:46;;;;;;;4.68;4.18;;;14.70;99.90;;;;;;5040482;28;20025;-44
2021/08/29 05:57:12;;;;;;;8.00;4.55;;;14.70;99.90;;;;;;5038992;28;20026;-44
2021/08/29 05:59:37;;;;;;;5.35;4.70;;;14.70;99.90;;;;;;5039121;28;20025;-44
2021/08/29 06:02:03;;;;;;;5.43;4.40;;;14.70;99.90;;;;;;5044105;28;20025;-43
2021/08/29 06:04:29;;;;;;;6.43;4.85;;;14.70;99.90;;;;;;5033349;28;20030;-45
2021/08/29 06:06:54;;;;;;;5.90;4.68;;;14.70;99.90;;;;;;5029427;28;20078;-44
2021/08/29 06:09:20;;;;;;;7.32;4.50;;;14.80;99.90;;;;;;5030071;28;20471;-43
2021/08/29 06:11:45;;;;;;;5.07;4.50;;;14.80;99.90;;;;;;5030054;28;20029;-44
2021/08/29 06:14:11;;;;;;;4.55;4.10;;;14.80;99.90;;;;;;5032589;28;20077;-45
2021/08/29 06:16:37;;;;;;;5.97;4.00;;;14.80;99.90;;;;;;5043898;28;20039;-44
2021/08/29 06:19:02;;;;;;;4.40;4.00;;;14.80;99.90;;;;;;5058256;28;20060;-44
2021/08/29 06:21:28;;;;;;;5.00;4.20;;;14.80;99.90;;;;;;5041582;28;20108;-44
2021/08/29 06:23:53;;;;;;;5.43;4.03;;;14.80;99.90;;;;;;5039781;28;20077;-44
2021/08/29 06:26:19;;;;;;;5.38;4.43;;;14.80;99.90;;;;;;5055421;28;20029;-44
2021/08/29 06:28:44;;;;;;;4.68;4.10;;;14.90;99.90;;;;;;5038576;28;20037;-44
2021/08/29 06:31:10;;;;;;;5.55;4.07;;;14.90;99.90;;;;;;5042796;28;20720;-46
2021/08/29 06:33:36;;;;;;;6.22;3.63;;;14.90;99.90;;;;;;5038162;28;20038;-45
2021/08/29 06:36:02;;;;;;;4.07;3.15;;;14.90;99.90;;;;;;5037060;28;20125;-45
2021/08/29 06:38:27;;;;;;;4.13;3.50;;;14.90;99.90;;;;;;5038554;28;20088;-44
2021/08/29 06:40:53;;;;;;;4.28;3.20;;;14.90;99.90;;;;;;5039918;28;20049;-45
2021/08/29 06:43:18;;;;;;;3.53;3.03;;;14.90;99.90;;;;;;5039723;28;20537;-45
2021/08/29 06:45:44;;;;;;;3.15;2.70;;;14.90;99.90;;;;;;5039047;28;20029;-46
2021/08/29 06:48:09;;;;;;;4.25;3.08;;;14.80;99.90;;;;;;5049432;28;20029;-45
2021/08/29 06:50:35;;;;;;;3.83;2.80;;;14.90;99.90;;;;;;5042153;28;20036;-45
2021/08/29 06:53:00;;;;;;;5.18;3.20;;;14.90;99.90;;;;;;5038468;28;20025;-45
2021/08/29 06:55:26;;;;;;;5.80;4.35;;;14.90;99.90;;;;;;5033238;28;20243;-46
2021/08/29 06:57:51;;;;;;;3.67;2.97;;;14.90;99.90;;;;;;5033084;28;20021;-44
2021/08/29 07:00:17;;;;;;;2.63;2.42;;;14.90;99.90;;;;;;5036702;28;20049;-44
2021/08/29 07:02:42;;;;;;;2.67;2.30;;;14.90;99.90;;;;;;5031960;28;20521;-44
2021/08/29 07:05:09;;;;;;;3.70;2.50;;;14.90;99.90;;;;;;5033258;28;20068;-44
2021/08/29 07:07:34;;;;;;;3.67;2.35;;;15.00;99.90;;;;;;5032967;28;20037;-43
2021/08/29 07:10:00;;;;;;;2.22;2.05;;;15.00;99.90;;;;;;5033116;28;20037;-43
2021/08/29 07:12:25;;;;;;;3.92;2.45;;;15.00;99.90;;;;;;5033430;28;20040;-44
2021/08/29 07:14:51;;;;;;;2.08;1.83;;;15.00;99.90;;;;;;5033346;28;20021;-44
2021/08/29 07:17:18;;;;;;;1.83;1.70;;;15.00;99.90;;;;;;5053118;28;20028;-44
2021/08/29 07:19:44;;;;;;;2.03;1.83;;;15.00;99.90;;;;;;5069667;28;20020;-43
2021/08/29 07:22:10;;;;;;;4.07;1.65;;;15.10;99.90;;;;;;5072991;28;20020;-42
2021/08/29 07:24:35;;;;;;;2.22;1.85;;;15.10;99.90;;;;;;5057920;28;20036;-42
2021/08/29 07:27:01;;;;;;;1.48;1.38;;;15.20;99.90;;;;;;5032243;28;20360;-42
2021/08/29 07:29:26;;;;;;;3.28;1.65;;;15.20;99.90;;;;;;5039839;28;20030;-43
2021/08/29 07:31:52;;;;;;;1.63;1.52;;;15.20;99.90;;;;;;5041662;28;20467;-42
2021/08/29 07:34:17;;;;;;;2.50;1.88;;;15.30;99.90;;;;;;5036796;28;20108;-42
2021/08/29 07:36:42;;;;;;;3.78;1.60;;;15.30;99.90;;;;;;5032229;28;20029;-42
2021/08/29 07:39:08;;;;;;;2.35;1.73;;;15.40;99.90;;;;;;5032806;28;20116;-42
2021/08/29 07:41:33;;;;;;;2.10;1.20;;;15.40;99.90;;;;;;5033042;28;20613;-43
2021/08/29 07:43:59;;;;;;;3.15;1.52;;;15.40;99.90;;;;;;5031261;28;20064;-41
2021/08/29 07:46:26;;;;;;;2.35;1.50;;;15.40;99.90;;;;;;5046500;28;20033;-42
2021/08/29 07:48:52;;;;;;;2.75;1.30;;;15.40;99.90;;;;;;5053789;28;20017;-42
2021/08/29 07:51:18;;;;;;;2.53;1.63;;;15.30;99.90;;;;;;5052206;28;20021;-43
2021/08/29 07:53:43;;;;;;;4.40;1.80;;;15.40;99.90;;;;;;5057553;28;20093;-42
2021/08/29 07:56:09;;;;;;;3.00;1.40;;;15.30;99.90;;;;;;5063569;28;20037;-43
2021/08/29 07:58:34;;;;;;;2.83;1.60;;;15.30;99.90;;;;;;5058272;28;20030;-42
2021/08/29 08:01:00;;;;;;;1.92;1.35;;;15.30;99.90;;;;;;5050858;28;20021;-41
2021/08/29 08:03:25;;;;;;;2.38;2.17;;;15.30;99.90;;;;;;5053031;28;20024;-42
2021/08/29 08:05:51;;;;;;;1.98;1.77;;;15.30;99.90;;;;;;5063442;28;20103;-43
2021/08/29 08:08:16;;;;;;;1.90;1.30;;;15.40;99.90;;;;;;5071152;28;20110;-42
2021/08/29 08:10:42;;;;;;;1.42;1.30;;;15.40;99.90;;;;;;5071851;28;20546;-42
2021/08/29 08:13:07;;;;;;;1.40;1.30;;;15.40;99.90;;;;;;5066696;28;20032;-43
2021/08/29 08:15:33;;;;;;;1.50;1.40;;;15.50;99.90;;;;;;5044834;28;20017;-42
2021/08/29 08:17:58;;;;;;;2.22;1.50;;;15.50;99.90;;;;;;5051029;28;20025;-42
2021/08/29 08:20:24;;;;;;;1.17;1.08;;;15.60;99.90;;;;;;5049764;28;20047;-42
2021/08/29 08:22:49;;;;;;;1.00;0.90;;;15.60;99.90;;;;;;5045051;28;20017;-42
2021/08/29 08:25:15;;;;;;;1.20;1.10;;;15.60;99.90;;;;;;5062305;28;20032;-42
2021/08/29 08:27:41;;;;;;;1.65;1.38;;;15.60;99.90;;;;;;5069946;28;20021;-43
2021/08/29 08:30:08;;;;;;;4.47;1.27;;;15.70;99.90;;;;;;5070661;28;20554;-42
2021/08/29 08:32:33;;;;;;;1.67;1.23;;;15.70;99.90;;;;;;5054963;28;20024;-42
2021/08/29 08:34:59;;;;;;;1.05;0.98;;;15.70;99.90;;;;;;5055339;28;20021;-43
2021/08/29 08:37:24;;;;;;;1.98;1.55;;;15.80;99.90;;;;;;5070025;28;20104;-43
2021/08/29 08:39:50;;;;;;;3.28;1.13;;;15.90;99.90;;;;;;5070456;28;20063;-42
2021/08/29 08:42:16;;;;;;;1.73;1.08;;;16.00;99.90;;;;;;5070206;28;20111;-42
2021/08/29 08:44:47;;;;;;;1.65;1.17;;;16.10;99.90;;;;;;5033391;28;20060;-44
2021/08/29 08:47:16;;;;;;;1.70;1.02;;;16.10;99.90;;;;;;5049675;28;20040;-44
2021/08/29 08:49:44;;;;;;;4.22;1.23;;;16.10;99.90;;;;;;5066891;28;20024;-43
2021/08/29 08:52:18;;;;;;;3.90;1.17;;;16.00;99.90;;;;;;5058336;28;20021;-44
2021/08/29 08:54:47;;;;;;;1.65;1.10;;;16.10;99.90;;;;;;5058239;28;20029;-43
2021/08/29 08:57:17;;;;;;;1.10;1.00;;;16.10;99.90;;;;;;5068424;28;20103;-45
2021/08/29 08:59:44;;;;;;;2.85;1.10;;;16.00;99.90;;;;;;5069198;28;20017;-43
2021/08/29 09:02:11;;;;;;;1.38;1.10;;;16.00;99.90;;;;;;5068699;28;20107;-42
2021/08/29 09:04:36;;;;;;;1.30;1.20;;;16.00;99.90;;;;;;5069206;28;20070;-44
2021/08/29 09:07:02;;;;;;;2.25;1.00;;;16.00;99.90;;;;;;5068475;28;20031;-44
2021/08/29 09:09:28;;;;;;;1.40;1.30;;;16.10;99.90;;;;;;5068158;28;20024;-42
2021/08/29 09:11:55;;;;;;;1.27;1.13;;;16.10;99.90;;;;;;5067762;28;20028;-42
2021/08/29 09:14:20;;;;;;;2.65;1.30;;;16.10;99.90;;;;;;5068663;28;20020;-42
2021/08/29 09:16:52;;;;;;;3.55;1.60;;;16.20;99.90;;;;;;5062375;28;20047;-43
2021/08/29 09:19:19;;;;;;;2.33;1.58;;;16.20;99.90;;;;;;5044688;28;20040;-42
2021/08/29 09:21:44;;;;;;;1.58;1.48;;;16.30;99.90;;;;;;5047550;28;20025;-43
2021/08/29 09:24:12;;;;;;;1.65;1.55;;;16.40;99.90;;;;;;5048700;28;20025;-44
2021/08/29 09:26:43;;;;;;;1.98;1.63;;;16.30;99.90;;;;;;5048293;28;20064;-43
2021/08/29 09:29:23;;;;;;;1.63;1.52;;;16.40;99.90;;;;;;5049150;28;20029;-45
2021/08/29 09:31:51;;;;;;;2.10;1.60;;;16.40;99.90;;;;;;5048461;28;20029;-43
2021/08/29 09:34:23;;;;;;;2.55;1.73;;;16.50;99.90;;;;;;5048303;28;20151;-43
2021/08/29 09:36:58;;;;;;;2.67;1.85;;;16.60;99.90;;;;;;5046893;28;20033;-44
2021/08/29 09:39:24;;;;;;;2.33;1.98;;;16.70;99.90;;;;;;5048826;28;20440;-44
2021/08/29 09:41:49;;;;;;;2.70;2.30;;;16.80;99.90;;;;;;5047293;28;20029;-43
2021/08/29 09:44:18;;;;;;;1.90;1.80;;;16.90;99.90;;;;;;5046909;28;20017;-43
2021/08/29 09:46:58;;;;;;;1.70;1.60;;;17.00;99.90;;;;;;5036712;28;20025;-47
2021/08/29 09:49:25;;;;;;;;;;;17.10;99.90;;;;;;5038426;28;20450;-43
2021/08/29 09:51:51;;;;;;;1.17;1.13;;;17.20;99.90;;;;;;5037703;28;20355;-44
2021/08/29 09:54:31;;;;;;;4.03;1.42;;;17.40;99.90;;;;;;5037809;28;20159;-44
2021/08/29 09:56:58;;;;;;;1.50;1.37;;;17.50;99.90;;;;;;5036828;28;20018;-44
2021/08/29 09:59:36;;;;;;;2.60;1.52;;;17.50;99.90;;;;;;5038459;28;20267;-43
2021/08/29 10:02:02;;;;;;;2.58;1.30;;;17.70;99.90;;;;;;5037757;28;20105;-43
2021/08/29 10:04:27;;;;;;;1.30;1.20;;;18.00;99.90;;;;;;5037684;28;20120;-47
2021/08/29 10:06:53;;;;;;;4.97;1.52;;;18.30;99.90;;;;;;5035003;28;20554;-46
2021/08/29 10:09:25;;;;;;;1.98;1.15;;;18.40;99.90;;;;;;5040792;28;20071;-44
2021/08/29 10:11:51;;;;;;;0.95;0.95;;;18.40;99.90;;;;;;5039367;28;20435;-43
2021/08/29 10:14:18;;;;;;;1.50;1.40;;;18.50;99.90;;;;;;5030621;28;20033;-44
2021/08/29 10:16:45;;;;;;;1.30;1.20;;;18.30;99.90;;;;;;5041663;28;20046;-43
2021/08/29 10:19:15;;;;;;;1.35;1.20;;;18.20;99.90;;;;;;5055892;28;20033;-43
2021/08/29 10:21:41;;;;;;;1.40;1.30;;;18.00;99.90;;;;;;5040329;28;20031;-43
2021/08/29 10:24:08;;;;;;;2.25;2.05;;;17.70;99.90;;;;;;5047850;28;20052;-43
2021/08/29 10:26:34;;;;;;;2.45;1.88;;;17.60;99.90;;;;;;5035312;28;20107;-42
2021/08/29 10:29:07;;;;;;;2.75;2.10;;;17.50;99.90;;;;;;5037449;28;20183;-44
2021/08/29 10:31:46;;;;;;;2.92;1.85;;;17.50;99.90;;;;;;5035968;28;20021;-44
2021/08/29 10:34:13;;;;;;;3.15;2.15;;;17.60;99.90;;;;;;5034406;28;20021;-43
2021/08/29 10:36:38;;;;;;;2.08;1.80;;;17.60;99.90;;;;;;5039120;28;20068;-45
2021/08/29 10:39:05;;;;;;;1.55;1.30;;;17.70;99.90;;;;;;5041604;28;20057;-43
2021/08/29 10:41:30;;;;;;;2.00;1.48;;;17.80;99.90;;;;;;5028452;28;20299;-44
2021/08/29 10:43:56;;;;;;;1.60;1.50;;;17.90;99.90;;;;;;5027502;28;20057;-43
2021/08/29 10:46:22;;;;;;;2.33;1.80;;;18.10;99.90;;;;;;5025613;28;20033;-43
2021/08/29 10:48:51;;;;;;;2.38;1.80;;;18.20;99.90;;;;;;5053297;28;20021;-42
2021/08/29 10:51:19;;;;;;;3.28;1.58;;;18.30;99.90;;;;;;5067401;28;20028;-45
2021/08/29 10:53:50;;;;;;;2.03;1.60;;;18.30;99.90;;;;;;5067473;28;20048;-44
2021/08/29 10:56:16;;;;;;;2.58;1.90;;;18.40;99.90;;;;;;5067443;28;20035;-44
2021/08/29 10:58:47;;;;;;;1.77;1.50;;;18.40;99.90;;;;;;5066423;28;20157;-45
2021/08/29 11:01:31;;;;;;;;;;;18.40;99.90;;;;;;5066887;28;20032;-45
2021/08/29 11:03:57;;;;;;;1.50;1.40;;;18.30;99.90;;;;;;5068004;28;20316;-44
2021/08/29 11:06:45;;;;;;;1.30;1.20;;;18.20;99.90;;;;;;5067295;28;20039;-44
2021/08/29 11:09:29;;;;;;;1.75;1.65;;;18.00;99.90;;;;;;5067960;28;20028;-46
2021/08/29 11:11:55;;;;;;;1.63;1.52;;;17.90;99.90;;;;;;5067898;28;20132;-45
2021/08/29 11:14:40;;;;;;;2.15;1.95;;;17.80;99.90;;;;;;5067460;28;20111;-43
2021/08/29 11:17:08;;;;;;;2.65;1.92;;;17.90;99.90;;;;;;5050691;28;20017;-43
2021/08/29 11:19:41;;;;;;;2.25;2.05;;;18.00;99.90;;;;;;5059141;28;20377;-43
2021/08/29 11:22:09;;;;;;;3.47;2.50;;;18.10;99.90;;;;;;5067555;28;20025;-45
2021/08/29 11:24:51;;;;;;;2.08;1.92;;;18.30;99.90;;;;;;5067540;28;20494;-43
2021/08/29 11:27:38;;;;;;;1.90;1.60;;;18.40;99.90;;;;;;5066987;28;20044;-43
2021/08/29 11:30:09;;;;;;;3.70;2.38;;;18.40;99.90;;;;;;5067725;28;20155;-44
2021/08/29 11:32:44;;;;;;;2.15;2.05;;;18.60;99.90;;;;;;5067224;28;20255;-43
2021/08/29 11:35:16;;;;;;;2.30;2.10;;;18.60;99.90;;;;;;5071221;28;20052;-45
2021/08/29 11:37:58;;;;;;;2.78;1.90;;;18.70;99.90;;;;;;5070497;28;20410;-42
2021/08/29 11:40:24;;;;;;;1.98;1.88;;;18.60;99.90;;;;;;5071069;28;20024;-43
2021/08/29 11:43:32;;;;;;;3.47;1.70;;;18.50;99.90;;;;;;5070952;28;20028;-43
2021/08/29 11:46:16;;;;;;;1.83;1.73;;;18.50;99.90;;;;;;5067771;28;20497;-43
2021/08/29 11:49:12;;;;;;;2.00;1.80;;;18.30;99.90;;;;;;5055554;28;20024;-43
2021/08/29 11:51:41;;;;;;;1.55;1.45;;;18.10;99.90;;;;;;5008171;28;20034;-43
2021/08/29 11:54:09;;;;;;;1.70;1.60;;;17.90;99.90;;;;;;5008413;28;20484;-43
2021/08/29 11:56:36;;;;;;;2.33;1.90;;;17.80;99.90;;;;;;5023195;28;20046;-43
2021/08/29 11:59:09;;;;;;;1.58;1.48;;;17.70;99.90;;;;;;5031149;28;20367;-44
2021/08/29 12:01:35;;;;;;;1.65;1.42;;;17.70;99.90;;;;;;5030665;28;20113;-43
2021/08/29 12:04:02;;;;;;;1.65;1.50;;;17.60;99.90;;;;;;5029833;28;20433;-44
2021/08/29 12:06:52;;;;;;;1.67;1.58;;;17.60;99.90;;;;;;5030417;28;20483;-42
2021/08/29 12:09:25;;;;;;;1.90;1.80;;;17.50;99.90;;;;;;5036985;28;20044;-43
2021/08/29 12:11:52;;;;;;;2.90;2.10;;;17.50;99.90;;;;;;5032516;28;20029;-44
2021/08/29 12:14:23;;;;;;;3.70;2.03;;;17.40;99.90;;;;;;5029091;28;20118;-46
2021/08/29 12:16:54;;;;;;;2.15;1.88;;;17.40;99.90;;;;;;5030970;28;20560;-43
2021/08/29 12:19:24;;;;;;;2.75;2.40;;;17.40;99.90;;;;;;5061985;28;20027;-43
2021/08/29 12:21:51;;;;;;;2.42;2.22;;;17.40;99.90;;;;;;5070300;28;20119;-43
2021/08/29 12:24:29;;;;;;;3.53;2.33;;;17.50;99.90;;;;;;5069037;28;20655;-43
2021/08/29 12:27:07;;;;;;;2.50;2.30;;;17.50;99.90;;;;;;5069696;28;20032;-43
2021/08/29 12:29:54;;;;;;;2.53;2.10;;;17.60;99.90;;;;;;5070140;28;20074;-44
2021/08/29 12:32:21;;;;;;;2.30;2.10;;;18.00;99.90;;;;;;5069901;28;20520;-43
2021/08/29 12:34:53;;;;;;;2.42;2.00;;;18.50;99.90;;;;;;5069930;28;20035;-45
2021/08/29 12:37:19;;;;;;;3.63;1.80;;;19.00;99.90;;;;;;5069291;28;20029;-46
2021/08/29 12:39:58;;;;;;;1.85;1.75;;;19.60;99.90;;;;;;5069932;28;20524;-44
2021/08/29 12:42:26;;;;;;;1.80;1.70;;;20.10;99.90;;;;;;5069941;28;20547;-45
2021/08/29 12:44:54;;;;;;;1.80;1.70;;;20.30;99.90;;;;;;5068087;28;20501;-45
2021/08/29 12:47:20;;;;;;;1.70;1.60;;;20.30;99.90;;;;;;5054372;28;20031;-44
2021/08/29 12:49:46;;;;;;;6.50;1.85;;;20.20;99.90;;;;;;5061647;28;20024;-43
2021/08/29 12:52:21;;;;;;;1.90;1.65;;;20.10;99.90;;;;;;5070000;28;20424;-48